17 de agosto de 2022

Hora Código Clima Temp. Visibilidade Tecto Vento METAR/SPECI
09:20
V
23 °C 10 km+ - Var Var 2 kt METAR EDDS 170720Z AUTO VRB02KT CAVOK 23/13 Q1012 NOSIG
08:50
V
22 °C 10 km+ - Var Var 1 kt METAR EDDS 170650Z AUTO VRB01KT CAVOK 22/14 Q1012 NOSIG
08:20
V
19 °C 10 km+ - Var Var 1 kt METAR EDDS 170620Z AUTO VRB01KT CAVOK 19/13 Q1012 NOSIG
07:50
V
18 °C 10 km+ - Var Var 1 kt METAR EDDS 170550Z AUTO VRB01KT CAVOK 18/13 Q1012 NOSIG
07:20
V
16 °C 10 km+ - 060° 060° 2 kt METAR EDDS 170520Z AUTO 06002KT CAVOK 16/12 Q1012 NOSIG
06:50
V
16 °C 10 km+ - Var Var 2 kt METAR EDDS 170450Z AUTO VRB02KT CAVOK 16/12 Q1011 NOSIG
06:20
V
17 °C 10 km+ - 240° 240° 3 kt METAR EDDS 170420Z AUTO 24003KT 210V270 CAVOK 17/12 Q1011 NOSIG
05:50
V
16 °C 10 km+ - 240° 240° 4 kt METAR EDDS 170350Z AUTO 24004KT CAVOK 16/12 Q1011
05:20
V
16 °C 10 km+ - Var Var 2 kt METAR EDDS 170320Z AUTO VRB02KT CAVOK 16/12 Q1011
04:50
V
17 °C 10 km+ - 290° 290° 4 kt METAR EDDS 170250Z AUTO 29004KT CAVOK 17/12 Q1011
04:20
V
17 °C 10 km+ - 300° 300° 4 kt METAR EDDS 170220Z AUTO 30004KT CAVOK 17/12 Q1011
03:50
V
17 °C 10 km+ - 300° 300° 4 kt METAR EDDS 170150Z AUTO 30004KT CAVOK 17/12 Q1011
03:20
V
17 °C 10 km+ - 290° 290° 2 kt METAR EDDS 170120Z AUTO 29002KT CAVOK 17/12 Q1011
02:50
V
17 °C 10 km+ - 330° 330° 2 kt METAR EDDS 170050Z AUTO 33002KT CAVOK 17/12 Q1011
02:20
V
17 °C 10 km+ - Var Var 1 kt METAR EDDS 170020Z AUTO VRB01KT CAVOK 17/13 Q1011
01:50
V
19 °C 10 km+ - 040° 040° 3 kt METAR EDDS 162350Z AUTO 04003KT CAVOK 19/13 Q1011
01:20
V
18 °C 10 km+ - Var Var 2 kt METAR EDDS 162320Z AUTO VRB02KT CAVOK 18/13 Q1011
00:50
V
19 °C 10 km+ - Var Var 2 kt METAR EDDS 162250Z AUTO VRB02KT CAVOK 19/12 Q1011
00:20
V
19 °C 10 km+ - 340° 340° 2 kt METAR EDDS 162220Z AUTO 34002KT CAVOK 19/12 Q1011

16 de agosto de 2022

Hora Código Clima Temp. Visibilidade Tecto Vento METAR/SPECI
23:50
V
20 °C 10 km+ - Var Var 2 kt METAR EDDS 162150Z AUTO VRB02KT CAVOK 20/12 Q1011
23:20
V
20 °C 10 km+ - Var Var 2 kt METAR EDDS 162120Z AUTO VRB02KT CAVOK 20/12 Q1011
22:50
V
21 °C 10 km+ - Var Var 1 kt METAR EDDS 162050Z AUTO VRB01KT CAVOK 21/12 Q1011
22:20
V
21 °C 10 km+ - 040° 040° 3 kt METAR EDDS 162020Z AUTO 04003KT 320V100 CAVOK 21/12 Q1011
21:50
V
22 °C 10 km+ - Var Var 1 kt METAR EDDS 161950Z AUTO VRB01KT CAVOK 22/12 Q1011 NOSIG
21:20
V
24 °C 10 km+ - 360° 360° 3 kt METAR EDDS 161920Z AUTO 36003KT CAVOK 24/12 Q1011 NOSIG
20:50
V
24 °C 10 km+ - 010° 010° 5 kt METAR EDDS 161850Z AUTO 01005KT CAVOK 24/12 Q1010 NOSIG
20:20
V
25 °C 10 km+ - 020° 020° 5 kt METAR EDDS 161820Z AUTO 02005KT CAVOK 25/12 Q1010 NOSIG
19:50
V
27 °C 10 km+ - 010° 010° 5 kt METAR EDDS 161750Z AUTO 01005KT 350V050 CAVOK 27/12 Q1010 NOSIG
19:20
V
28 °C 10 km+ - 020° 020° 5 kt METAR EDDS 161720Z AUTO 02005KT 340V050 CAVOK 28/12 Q1010 NOSIG
18:50
V
28 °C 10 km+ - 020° 020° 6 kt METAR EDDS 161650Z AUTO 02006KT 340V060 CAVOK 28/12 Q1010
18:20
V
27 °C 10 km+ - 010° 010° 5 kt METAR EDDS 161620Z AUTO 01005KT 330V060 CAVOK 27/12 Q1010 NOSIG
17:50
V
28 °C 10 km+ - 060° 060° 6 kt METAR EDDS 161550Z AUTO 06006KT 030V090 CAVOK 28/12 Q1010 NOSIG
17:20
V
28 °C 10 km+ - 080° 080° 3 kt METAR EDDS 161520Z AUTO 08003KT 020V160 CAVOK 28/12 Q1010 NOSIG
16:50
V
28 °C 10 km+ - 070° 070° 5 kt METAR EDDS 161450Z AUTO 07005KT 010V150 CAVOK 28/12 Q1010 NOSIG
16:20
V
28 °C 10 km+ - Var Var 2 kt METAR EDDS 161420Z AUTO VRB02KT CAVOK 28/12 Q1010 NOSIG
15:50
V
28 °C 10 km+ - Var Var 4 kt METAR EDDS 161350Z AUTO VRB04KT CAVOK 28/12 Q1010 NOSIG
15:20
V
27 °C 10 km+ - Var Var 4 kt METAR EDDS 161320Z AUTO VRB04KT CAVOK 27/12 Q1011 NOSIG
14:50
V
27 °C 10 km+ - 090° 090° 5 kt METAR EDDS 161250Z AUTO 09005KT 030V140 CAVOK 27/12 Q1011 NOSIG
14:20
V
26 °C 10 km+ - Var Var 3 kt METAR EDDS 161220Z AUTO VRB03KT CAVOK 26/12 Q1011 NOSIG
13:50
V
25 °C 10 km+ - Var Var 3 kt METAR EDDS 161150Z AUTO VRB03KT CAVOK 25/12 Q1011 NOSIG
13:20
V
26 °C 10 km+ - Var Var 3 kt METAR EDDS 161120Z AUTO VRB03KT 9999 FEW048 26/13 Q1011 NOSIG
12:50
V
24 °C 10 km+ - Var Var 4 kt METAR EDDS 161050Z AUTO VRB04KT CAVOK 24/13 Q1011 NOSIG
12:20
V
23 °C 10 km+ - Var Var 2 kt METAR EDDS 161020Z AUTO VRB02KT 9999 SCT045 23/13 Q1011 NOSIG
11:50
V
23 °C 10 km+ - 350° 350° 3 kt METAR EDDS 160950Z AUTO 35003KT 310V030 9999 SCT041 SCT048 23/13 Q1011 NOSIG
11:20
V
23 °C 10 km+ 4.600 ft 270° 270° 3 kt METAR EDDS 160920Z AUTO 27003KT 220V360 9999 SCT039 BKN046 23/13 Q1011 NOSIG
10:50
V
23 °C 10 km+ 4.500 ft 240° 240° 4 kt METAR EDDS 160850Z AUTO 24004KT 150V300 9999 SCT036 BKN045 23/13 Q1011 NOSIG
10:20
V
23 °C 10 km+ - Var Var 3 kt METAR EDDS 160820Z AUTO VRB03KT 9999 FEW032 23/14 Q1011 NOSIG
09:50
V
22 °C 10 km+ - Var Var 4 kt METAR EDDS 160750Z AUTO VRB04KT CAVOK 22/14 Q1011 NOSIG
09:20
V
20 °C 10 km+ - 080° 080° 4 kt METAR EDDS 160720Z AUTO 08004KT 030V130 CAVOK 20/15 Q1011 NOSIG
08:50
V
19 °C 10 km+ - Var Var 2 kt METAR EDDS 160650Z AUTO VRB02KT CAVOK 19/14 Q1011 NOSIG
08:20
V
18 °C 10 km+ - Var Var 2 kt METAR EDDS 160620Z AUTO VRB02KT CAVOK 18/14 Q1011 NOSIG
07:50
V
16 °C 10 km+ - 080° 080° 2 kt METAR EDDS 160550Z AUTO 08002KT CAVOK 16/14 Q1011 NOSIG
07:20
V
16 °C 10 km+ - 090° 090° 1 kt METAR EDDS 160520Z AUTO 09001KT CAVOK 16/13 Q1011 NOSIG
06:50
V
15 °C 10 km+ - 110° 110° 1 kt METAR EDDS 160450Z AUTO 11001KT CAVOK 15/13 Q1011 NOSIG
06:20
V
14 °C 10 km+ - Var Var 2 kt METAR EDDS 160420Z AUTO VRB02KT CAVOK 14/13 Q1010 NOSIG
05:50
V
14 °C 10 km+ - Var Var 1 kt METAR EDDS 160350Z AUTO VRB01KT CAVOK 14/13 Q1010
05:20
V
15 °C 10 km+ - Var Var 2 kt METAR EDDS 160320Z AUTO VRB02KT CAVOK 15/14 Q1010
04:50
V
15 °C 10 km+ - 120° 120° 2 kt METAR EDDS 160250Z AUTO 12002KT CAVOK 15/14 Q1010
04:20
V
15 °C 10 km+ - Var Var 1 kt METAR EDDS 160220Z AUTO VRB01KT CAVOK 15/14 Q1011
03:50
V
14 °C 10 km+ - 070° 070° 4 kt METAR EDDS 160150Z AUTO 07004KT CAVOK 14/13 Q1011
03:20
V
16 °C 10 km+ - Var Var 1 kt METAR EDDS 160120Z AUTO VRB01KT 9999 FEW040 16/12 Q1011
02:50
V
16 °C 10 km+ - Var Var 1 kt METAR EDDS 160050Z AUTO VRB01KT 9999 FEW041 16/12 Q1011
02:20
V
16 °C 10 km+ - Var Var 1 kt METAR EDDS 160020Z AUTO VRB01KT CAVOK 16/12 Q1010
01:50
V
16 °C 10 km+ - 080° 080° 2 kt METAR EDDS 152350Z AUTO 08002KT CAVOK 16/12 Q1010
01:20
V
17 °C 10 km+ - Var Var 1 kt METAR EDDS 152320Z AUTO VRB01KT CAVOK 17/12 Q1011
00:50
V
17 °C 10 km+ - Var 000° 0 kt METAR EDDS 152250Z AUTO 00000KT CAVOK 17/13 Q1011
00:20
V
18 °C 10 km+ - Var Var 1 kt METAR EDDS 152220Z AUTO VRB01KT CAVOK 18/12 Q1011

15 de agosto de 2022

Hora Código Clima Temp. Visibilidade Tecto Vento METAR/SPECI
23:50
V
18 °C 10 km+ - Var Var 1 kt METAR EDDS 152150Z AUTO VRB01KT CAVOK 18/12 Q1011
23:20
V
17 °C 10 km+ - Var Var 2 kt METAR EDDS 152120Z AUTO VRB02KT CAVOK 17/12 Q1010
22:50
V
18 °C 10 km+ - Var Var 2 kt METAR EDDS 152050Z AUTO VRB02KT CAVOK 18/12 Q1010
22:20
V
19 °C 10 km+ - 220° 220° 3 kt METAR EDDS 152020Z AUTO 22003KT 160V270 CAVOK 19/11 Q1010 NOSIG
21:50
V
18 °C 10 km+ - 220° 220° 3 kt METAR EDDS 151950Z AUTO 22003KT 180V250 CAVOK 18/11 Q1010 NOSIG
21:20
V
19 °C 10 km+ - Var Var 2 kt METAR EDDS 151920Z AUTO VRB02KT CAVOK 19/11 Q1010 NOSIG
20:50
V
20 °C 10 km+ - 190° 190° 3 kt METAR EDDS 151850Z AUTO 19003KT 140V290 CAVOK 20/11 Q1009 NOSIG
20:20
V
21 °C 10 km+ - 210° 210° 4 kt METAR EDDS 151820Z AUTO 21004KT 140V310 CAVOK 21/11 Q1009 NOSIG
19:50
V
21 °C 10 km+ - 250° 250° 5 kt METAR EDDS 151750Z AUTO 25005KT CAVOK 21/11 Q1009 NOSIG
19:20
V
21 °C 10 km+ - Var Var 4 kt METAR EDDS 151720Z AUTO VRB04KT CAVOK 21/11 Q1008 NOSIG
18:50
V
22 °C 10 km+ - 140° 140° 3 kt METAR EDDS 151650Z AUTO 14003KT 070V230 CAVOK 22/13 Q1009 NOSIG
18:20
V
21 °C 10 km+ - 150° 150° 4 kt METAR EDDS 151620Z AUTO 15004KT 090V200 CAVOK 21/14 Q1008 RESHRA NOSIG
17:50
V
20 °C 10 km+ - 300° 300° 9 kt METAR EDDS 151550Z AUTO 30009KT 9999 SHRA FEW///CB 20/13 Q1008 RETS TEMPO 4000 TSRA
17:20
V
21 °C 10 km+ - 250° 250° 13 kt METAR EDDS 151520Z AUTO 25013KT 9999 +TSGRRA FEW017 SCT///CB 21/13 Q1008
16:50
V
23 °C 10 km+ - 290° 290° 18 - 32 kt METAR EDDS 151450Z AUTO 29018G32KT 9999 SHRA FEW///CB 23/13 Q1007 TEMPO 4000 TSRA
16:20
V
26 °C 10 km+ - 360° 360° 7 kt METAR EDDS 151420Z AUTO 36007KT 320V040 9999 VCSH FEW///TCU 26/12 Q1006 RESHRA TEMPO 30020G35KT 4000 TSRA
15:50
V
26 °C 10 km+ - 350° 350° 9 kt METAR EDDS 151350Z AUTO 35009KT 300V030 9999 -SHRA VCTS FEW///CB 26/12 Q1006 TEMPO 27015G30KT 4000 TSRA
15:20
V
27 °C 10 km+ - Var Var 4 kt METAR EDDS 151320Z AUTO VRB04KT 9999 -SHRA FEW///CB 27/12 Q1007 RESHRA TEMPO 27015G30KT 4000 TSRA
14:50
V
26 °C 10 km+ - 330° 330° 3 kt METAR EDDS 151250Z AUTO 33003KT CAVOK 26/11 Q1007 TEMPO SHRA BKN040CB
14:20
V
26 °C 10 km+ - 320° 320° 8 kt METAR EDDS 151220Z AUTO 32008KT 270V360 CAVOK 26/11 Q1007 TEMPO SHRA BKN040CB
13:50
V
27 °C 10 km+ - Var Var 4 kt METAR EDDS 151150Z AUTO VRB04KT CAVOK 27/10 Q1007 NOSIG
13:20
V
27 °C 10 km+ - 250° 250° 7 kt METAR EDDS 151120Z AUTO 25007KT 160V310 CAVOK 27/10 Q1007 NOSIG
12:50
V
27 °C 10 km+ - 240° 240° 8 kt METAR EDDS 151050Z AUTO 24008KT 160V310 CAVOK 27/10 Q1007 NOSIG
12:20
V
26 °C 10 km+ - 250° 250° 8 kt METAR EDDS 151020Z AUTO 25008KT 170V300 CAVOK 26/11 Q1008 NOSIG
11:50
V
25 °C 10 km+ - 250° 250° 10 kt METAR EDDS 150950Z AUTO 25010KT 180V290 9999 FEW048 25/11 Q1008 NOSIG
11:20
V
24 °C 10 km+ - 250° 250° 8 kt METAR EDDS 150920Z AUTO 25008KT 210V280 9999 FEW041 SCT047 24/12 Q1008
10:50
V
23 °C 10 km+ - 260° 260° 8 kt METAR EDDS 150850Z AUTO 26008KT 190V300 9999 FEW036 23/12 Q1008 NOSIG
10:20
V
22 °C 10 km+ - 250° 250° 9 kt METAR EDDS 150820Z AUTO 25009KT 200V280 9999 FEW030 SCT041 22/13 Q1008 NOSIG
09:50
V
21 °C 10 km+ - 250° 250° 9 kt METAR EDDS 150750Z AUTO 25009KT 200V290 9999 FEW029 21/13 Q1008 NOSIG
09:20
V
21 °C 10 km+ - 270° 270° 6 kt METAR EDDS 150720Z AUTO 27006KT 220V300 9999 FEW026 21/14 Q1008 NOSIG
Dados mais antigos

Nós e terceiros acompanhamos seu comportamento na internet em nosso site com cookies. Se você continuar, nós assumimos que você concorda com nossa política de cookies. Saiba mais